Time;durP1;ratioP1;P1;durP2;ratioP2;P2;SDS_P1;SDS_P2;PMS_P1;PMS_P2;Temp;Humidity;BMP_temperature;BMP_pressure;BME280_temperature;BME280_humidity;BME280_pressure;Samples;Min_cycle;Max_cycle;Signal;HPM_P1;HPM_P2
2022/01/30 00:00:09;;;;;;;7.55;4.70;;;;;;;8.28;66.95;98227.78;5026838;28;20053;-74
2022/01/30 00:02:37;;;;;;;8.23;3.50;;;;;;;8.29;66.75;98229.47;5027059;28;20090;-76
2022/01/30 00:05:05;;;;;;;7.30;4.32;;;;;;;8.24;66.68;98229.88;5025695;28;20108;-75
2022/01/30 00:07:32;;;;;;;5.95;4.35;;;;;;;8.18;66.36;98226.03;5028722;28;20095;-74
2022/01/30 00:10:02;;;;;;;6.88;3.75;;;;;;;8.17;65.47;98216.50;5029431;28;20132;-75
2022/01/30 00:12:39;;;;;;;5.03;2.45;;;;;;;8.21;64.79;98214.38;5029495;28;20057;-75
2022/01/30 00:15:07;;;;;;;3.90;1.80;;;;;;;8.19;63.86;98246.13;5028026;28;20064;-72
2022/01/30 00:17:40;;;;;;;5.28;2.00;;;;;;;8.26;63.73;98241.09;5065440;28;20044;-73
2022/01/30 00:20:14;;;;;;;5.90;2.78;;;;;;;8.27;62.03;98232.22;5066032;28;20135;-69
2022/01/30 00:22:47;;;;;;;8.05;3.80;;;;;;;8.19;60.24;98229.50;5065127;28;20045;-70
2022/01/30 00:25:19;;;;;;;6.75;4.07;;;;;;;8.15;59.93;98189.50;5063989;28;20044;-69
2022/01/30 00:27:50;;;;;;;8.25;4.95;;;;;;;8.18;60.39;98244.44;5062524;28;20048;-70
2022/01/30 00:30:18;;;;;;;14.05;8.57;;;;;;;7.93;58.68;98171.50;5043624;28;20135;-67
2022/01/30 00:32:46;;;;;;;10.35;5.13;;;;;;;7.90;59.19;98258.53;5043839;28;20049;-70
2022/01/30 00:35:14;;;;;;;7.72;2.88;;;;;;;8.00;58.41;98240.94;5043971;28;20053;-70
2022/01/30 00:37:43;;;;;;;7.10;3.60;;;;;;;8.04;58.24;98247.56;5044704;28;20531;-69
2022/01/30 00:40:11;;;;;;;8.00;4.07;;;;;;;8.01;57.48;98248.69;5044515;28;20076;-73
2022/01/30 00:42:39;;;;;;;5.35;2.28;;;;;;;7.94;57.69;98249.38;5046745;28;20041;-71
2022/01/30 00:45:07;;;;;;;8.02;2.35;;;;;;;8.08;57.22;98298.06;5044965;28;20053;-70
2022/01/30 00:47:34;;;;;;;15.63;4.88;;;;;;;8.04;56.56;98294.88;5062792;28;20155;-72
2022/01/30 00:50:01;;;;;;;14.13;2.58;;;;;;;7.96;56.43;98292.13;5065223;28;20127;-75
2022/01/30 00:52:28;;;;;;;9.35;2.90;;;;;;;7.91;56.30;98278.59;5065642;28;20044;-74
2022/01/30 00:54:55;;;;;;;10.63;4.72;;;;;;;7.81;55.30;98283.88;5065542;28;20113;-73
2022/01/30 00:57:22;;;;;;;12.20;4.03;;;;;;;7.68;54.78;98265.78;5065061;28;20052;-71
2022/01/30 00:59:51;;;;;;;13.93;4.60;;;;;;;7.47;55.12;98273.81;5066231;28;20431;-70
2022/01/30 01:02:18;;;;;;;13.15;6.53;;;;;;;7.28;54.06;98272.06;5066934;28;20563;-69
2022/01/30 01:04:46;;;;;;;6.45;3.17;;;;;;;7.29;53.99;98273.72;5063878;28;20048;-70
2022/01/30 01:07:18;;;;;;;11.40;3.58;;;;;;;7.24;53.88;98276.75;5065638;28;20054;-71
2022/01/30 01:09:53;;;;;;;18.20;5.00;;;;;;;7.12;53.21;98295.41;5068423;28;20044;-70
2022/01/30 01:23:28;;;;;;;5.07;2.25;;;;;;;7.28;56.28;98296.53;5012931;28;20049;-69
2022/01/30 01:25:55;;;;;;;9.48;3.95;;;;;;;7.04;57.36;98286.44;5013276;28;20080;-74
2022/01/30 01:28:23;;;;;;;9.82;3.80;;;;;;;6.95;58.07;98282.00;5010269;28;20118;-72
2022/01/30 01:30:52;;;;;;;10.93;2.97;;;;;;;7.03;57.99;98315.44;5006790;28;20068;-73
2022/01/30 01:33:20;;;;;;;9.65;3.50;;;;;;;7.01;57.51;98291.94;5014231;28;20137;-75
2022/01/30 01:35:47;;;;;;;9.52;4.05;;;;;;;6.96;57.38;98273.16;5010668;28;20097;-72
2022/01/30 01:38:15;;;;;;;12.68;4.70;;;;;;;6.89;57.15;98278.13;5010547;28;20324;-76
2022/01/30 01:40:50;;;;;;;9.07;2.88;;;;;;;6.87;57.39;98280.06;5017537;28;20046;-72
2022/01/30 01:43:17;;;;;;;14.70;3.53;;;;;;;6.89;56.95;98245.81;5015116;28;20135;-70
2022/01/30 01:45:46;;;;;;;14.77;5.38;;;;;;;6.73;56.82;98256.00;5009499;28;20433;-72
2022/01/30 01:48:15;;;;;;;7.82;3.22;;;;;;;6.91;56.48;98266.66;4972156;28;20051;-77
2022/01/30 01:50:52;;;;;;;8.07;2.35;;;;;;;6.96;56.42;98269.72;4954558;28;20127;-77
2022/01/30 01:53:23;;;;;;;8.20;2.22;;;;;;;6.97;55.99;98266.97;5028040;28;20049;-76
2022/01/30 01:55:51;;;;;;;10.20;3.55;;;;;;;6.89;55.19;98230.06;5028200;28;20128;-72
2022/01/30 01:58:18;;;;;;;16.70;5.97;;;;;;;6.89;54.39;98223.00;5028367;28;20045;-75
2022/01/30 02:00:45;;;;;;;10.98;3.90;;;;;;;6.84;53.96;98221.75;5027526;28;20467;-70
2022/01/30 02:03:16;;;;;;;12.07;4.20;;;;;;;6.90;54.08;98226.47;5027718;28;20148;-77
2022/01/30 02:05:53;;;;;;;14.68;5.82;;;;;;;6.86;52.91;98214.56;5026991;28;20077;-76
2022/01/30 02:11:35;;;;;;;;;;;;;;;7.21;52.31;98223.69;5085090;27;20749;-73
2022/01/30 02:14:29;;;;;;;7.63;3.13;;;;;;;6.99;53.04;98217.78;5084411;28;19920;-74
2022/01/30 02:28:06;;;;;;;9.88;3.50;;;;;;;7.29;52.79;98205.44;4943679;29;20516;-74
2022/01/30 02:30:36;;;;;;;9.75;2.80;;;;;;;7.23;52.21;98195.50;4943802;29;20872;-75
2022/01/30 02:33:03;;;;;;;13.82;3.35;;;;;;;7.35;52.43;98202.25;4944145;29;20121;-77
2022/01/30 02:35:30;;;;;;;14.73;3.95;;;;;;;7.41;51.92;98196.44;4941158;29;20051;-73
2022/01/30 02:38:02;;;;;;;6.78;3.72;;;;;;;7.46;52.05;98209.97;4942866;29;20216;-70
2022/01/30 02:40:35;;;;;;;10.93;4.00;;;;;;;7.53;51.57;98170.03;4942800;29;20478;-71
2022/01/30 02:43:03;;;;;;;15.25;4.93;;;;;;;7.45;50.60;98161.06;4928383;29;20043;-71
2022/01/30 02:45:33;;;;;;;13.00;2.80;;;;;;;7.61;51.07;98156.97;4943571;28;20579;-77
2022/01/30 02:48:14;;;;;;;14.00;3.40;;;;;;;7.63;50.59;98160.28;4942663;29;20048;-73
2022/01/30 02:50:52;;;;;;;14.93;3.03;;;;;;;7.68;49.72;98144.91;4943666;29;20083;-73
2022/01/30 02:53:29;;;;;;;19.92;4.43;;;;;;;7.70;49.69;98161.38;4943027;29;20527;-74
2022/01/30 02:55:56;;;;;;;10.30;3.65;;;;;;;7.70;49.04;98166.63;4940744;29;20677;-72
2022/01/30 02:58:24;;;;;;;12.50;4.55;;;;;;;7.76;49.45;98141.56;4942617;29;20067;-71
2022/01/30 03:00:52;;;;;;;14.30;3.65;;;;;;;7.70;48.84;98150.84;4942502;29;20146;-71
2022/01/30 03:03:19;;;;;;;6.28;3.00;;;;;;;7.82;49.21;98148.88;4996304;28;20595;-71
2022/01/30 03:05:46;;;;;;;12.15;4.10;;;;;;;7.81;48.87;98150.69;5048975;28;20436;-71
2022/01/30 03:08:13;;;;;;;5.00;2.83;;;;;;;7.87;48.71;98130.03;5061897;28;20511;-73
2022/01/30 03:10:42;;;;;;;15.32;3.55;;;;;;;7.86;48.35;98110.81;5061617;28;20056;-70
2022/01/30 03:13:09;;;;;;;20.83;3.85;;;;;;;7.90;48.75;98125.31;5062595;28;20048;-70
2022/01/30 03:15:36;;;;;;;5.85;2.38;;;;;;;7.83;48.36;98119.84;5062811;28;20135;-72
2022/01/30 03:18:03;;;;;;;11.80;4.55;;;;;;;7.82;48.29;98109.47;5061745;28;20052;-75
2022/01/30 03:20:30;;;;;;;15.80;3.70;;;;;;;7.82;48.96;98127.84;5061314;28;20454;-73
2022/01/30 03:22:59;;;;;;;7.07;1.52;;;;;;;7.87;49.18;98135.28;5048621;28;20132;-72
2022/01/30 03:25:26;;;;;;;12.73;3.92;;;;;;;7.78;49.31;98129.94;5048736;28;20041;-72
2022/01/30 03:27:55;;;;;;;11.73;3.10;;;;;;;7.64;50.11;98164.59;5049435;28;20668;-76
2022/01/30 03:30:28;;;;;;;10.80;2.97;;;;;;;7.48;50.62;98141.53;5049760;28;20099;-72
2022/01/30 03:32:56;;;;;;;17.00;4.85;;;;;;;7.41;50.69;98125.53;5050343;28;20053;-78
2022/01/30 03:35:23;;;;;;;15.30;4.63;;;;;;;7.31;51.30;98118.63;5049266;28;20052;-69
2022/01/30 03:37:50;;;;;;;11.93;4.25;;;;;;;7.24;51.47;98115.78;5049559;28;20041;-76
2022/01/30 03:40:17;;;;;;;12.25;2.65;;;;;;;7.18;51.56;98119.78;5050202;28;20718;-73
2022/01/30 03:42:44;;;;;;;11.23;2.38;;;;;;;7.27;51.87;98112.84;5051113;28;20408;-69
2022/01/30 03:45:13;;;;;;;12.25;4.15;;;;;;;7.17;51.34;98104.19;5050248;28;20365;-75
2022/01/30 03:47:39;;;;;;;15.23;4.50;;;;;;;7.19;51.70;98107.50;5051943;28;20037;-70
2022/01/30 03:50:07;;;;;;;12.02;4.05;;;;;;;7.25;51.50;98078.03;5054342;28;20489;-78
2022/01/30 03:52:34;;;;;;;9.77;2.97;;;;;;;7.22;51.71;98086.19;5056800;28;20131;-76
2022/01/30 03:55:01;;;;;;;15.57;4.35;;;;;;;7.15;51.62;98082.47;5059152;28;20088;-74
2022/01/30 03:57:28;;;;;;;10.20;3.90;;;;;;;7.16;51.68;98094.66;5065713;28;20069;-75
2022/01/30 03:59:55;;;;;;;14.05;5.03;;;;;;;7.14;51.82;98070.34;5069310;28;20535;-73
2022/01/30 04:02:23;;;;;;;9.20;2.55;;;;;;;7.24;51.83;98085.09;5071110;28;20730;-78
2022/01/30 04:04:51;;;;;;;6.78;2.50;;;;;;;7.28;52.12;98090.88;5045057;28;20160;-74
2022/01/30 04:07:19;;;;;;;10.50;4.63;;;;;;;7.28;52.07;98094.31;5060533;28;20466;-77
2022/01/30 04:09:46;;;;;;;10.68;4.78;;;;;;;7.26;52.02;98079.69;5059540;28;20052;-73
2022/01/30 04:12:15;;;;;;;11.63;4.45;;;;;;;7.22;51.85;98083.56;5061947;28;20133;-74
2022/01/30 04:14:45;;;;;;;7.80;3.22;;;;;;;7.30;51.53;98085.50;5061173;28;20548;-75
2022/01/30 04:17:13;;;;;;;11.50;5.70;;;;;;;7.34;50.99;98061.41;5058748;28;20053;-77
2022/01/30 04:19:42;;;;;;;16.88;5.38;;;;;;;7.40;50.76;98105.50;5059435;28;20055;-73
2022/01/30 04:22:10;;;;;;;18.17;5.70;;;;;;;7.37;49.88;98058.50;5058957;28;20112;-78
2022/01/30 04:24:37;;;;;;;16.70;4.50;;;;;;;7.39;49.85;98069.69;5058557;28;20073;-76
2022/01/30 04:27:04;;;;;;;11.88;2.35;;;;;;;7.44;49.98;98079.78;5057377;28;20124;-74
2022/01/30 04:29:32;;;;;;;11.18;4.68;;;;;;;7.30;49.04;98046.09;5056702;28;20437;-79
2022/01/30 04:32:00;;;;;;;16.08;4.47;;;;;;;7.43;48.93;98076.28;5055022;28;20049;-70
2022/01/30 04:34:28;;;;;;;7.93;2.40;;;;;;;7.47;49.09;98111.81;5051581;28;20140;-75
2022/01/30 04:37:01;;;;;;;20.20;4.32;;;;;;;7.43;48.86;98081.56;5052261;28;20105;-73
2022/01/30 04:39:50;;;;;;;5.68;1.75;;;;;;;7.48;49.33;98089.00;5052649;28;20087;-77
2022/01/30 04:51:57;;;;;;;5.40;1.95;;;;;;;7.45;49.43;98079.63;5049649;28;20051;-72
2022/01/30 04:53:35;;;;;;;4.78;1.77;;;;;;;7.10;50.39;98055.84;4963253;28;20548;-75
2022/01/30 04:59:14;;;;;;;9.90;2.67;;;;;;;6.89;51.52;98036.69;4939500;28;20056;-74
2022/01/30 05:01:56;;;;;;;7.53;2.03;;;;;;;6.86;52.32;98044.88;4927854;29;20055;-71
2022/01/30 05:04:29;;;;;;;10.13;2.33;;;;;;;6.82;52.55;98061.03;4928301;29;20581;-72
2022/01/30 05:07:27;;;;;;;13.15;5.00;;;;;;;6.65;53.14;98033.72;4927939;29;20107;-75
2022/01/30 05:09:45;;;;;;;11.40;3.17;;;;;;;6.65;53.44;98067.81;4928287;29;20106;-75
2022/01/30 05:12:15;;;;;;;10.30;3.33;;;;;;;6.64;53.31;98043.38;4928321;29;20043;-75
2022/01/30 05:14:44;;;;;;;8.80;3.05;;;;;;;6.72;53.16;98054.94;4929040;29;20051;-72
2022/01/30 05:17:12;;;;;;;9.45;2.70;;;;;;;6.82;52.88;98055.78;4927221;29;20055;-72
2022/01/30 05:19:40;;;;;;;14.57;2.83;;;;;;;6.79;52.01;98032.44;4928386;29;20047;-67
2022/01/30 05:22:08;;;;;;;11.35;3.60;;;;;;;6.85;51.87;98032.69;4928365;29;20419;-72
2022/01/30 05:24:35;;;;;;;11.52;3.47;;;;;;;6.84;51.32;98003.97;4928194;29;20090;-76
2022/01/30 05:27:05;;;;;;;10.25;2.75;;;;;;;6.82;51.14;98019.84;4928869;29;20150;-75
2022/01/30 05:29:32;;;;;;;12.45;4.82;;;;;;;6.80;50.70;97958.00;4954002;28;20205;-69
2022/01/30 05:32:00;;;;;;;9.48;4.38;;;;;;;6.66;51.03;98025.72;5053977;28;20087;-75
2022/01/30 05:34:28;;;;;;;10.75;3.17;;;;;;;6.70;51.14;98002.66;5054023;28;20555;-74
2022/01/30 05:36:57;;;;;;;5.07;1.20;;;;;;;6.80;50.79;98010.50;5047409;28;20057;-71
2022/01/30 05:39:25;;;;;;;6.63;2.20;;;;;;;6.69;51.44;98027.22;5047265;28;20053;-71
2022/01/30 05:41:52;;;;;;;10.93;4.90;;;;;;;6.65;51.54;97984.72;5047579;28;20152;-73
2022/01/30 05:44:30;;;;;;;10.77;3.78;;;;;;;6.63;51.56;98001.56;5047209;28;20063;-73
2022/01/30 05:47:02;;;;;;;13.27;4.55;;;;;;;6.56;51.71;98001.28;5046646;28;20052;-75
2022/01/30 05:49:30;;;;;;;9.48;3.10;;;;;;;6.56;51.48;98005.72;5046673;28;20674;-66
2022/01/30 05:51:57;;;;;;;11.80;5.55;;;;;;;6.36;51.82;97978.72;5046842;28;20063;-70
2022/01/30 05:54:24;;;;;;;9.10;3.28;;;;;;;6.39;51.91;98008.09;5045749;28;20060;-71
2022/01/30 05:56:51;;;;;;;8.18;2.63;;;;;;;6.35;52.10;98000.63;5047109;28;20072;-73
2022/01/30 05:59:20;;;;;;;9.75;4.10;;;;;;;6.31;52.31;98000.91;5047017;28;20528;-74
2022/01/30 06:01:46;;;;;;;13.63;2.25;;;;;;;6.28;52.58;98011.69;5046360;28;20045;-75
2022/01/30 06:04:13;;;;;;;5.68;2.65;;;;;;;6.19;52.90;98011.69;5046665;28;20547;-70
2022/01/30 06:06:49;;;;;;;8.18;1.67;;;;;;;6.21;52.96;98013.22;5044780;28;20051;-77
2022/01/30 06:09:19;;;;;;;;;;;;;;;6.46;52.27;98010.97;5046919;28;20481;-72
2022/01/30 06:11:49;;;;;;;8.80;2.78;;;;;;;6.19;53.04;97986.28;5046681;28;20588;-75
2022/01/30 06:14:16;;;;;;;7.57;2.25;;;;;;;6.24;53.03;98005.06;5029401;28;20123;-75
2022/01/30 06:16:45;;;;;;;8.98;3.70;;;;;;;6.14;53.03;97996.38;5046877;28;20042;-76
2022/01/30 06:19:12;;;;;;;11.13;3.38;;;;;;;6.26;52.92;97999.69;5047442;28;20135;-76
2022/01/30 06:21:39;;;;;;;11.15;3.25;;;;;;;6.22;52.92;98014.84;5050735;28;20665;-77
2022/01/30 06:24:06;;;;;;;6.00;1.92;;;;;;;6.28;53.01;98006.44;5052006;28;20088;-70
2022/01/30 06:26:33;;;;;;;11.65;4.07;;;;;;;6.28;52.79;98010.84;5048787;28;20056;-76
2022/01/30 06:29:00;;;;;;;11.10;4.15;;;;;;;6.20;52.77;98003.69;5050724;28;20644;-71
2022/01/30 06:31:27;;;;;;;11.15;4.68;;;;;;;6.28;52.50;97989.88;5046809;28;20056;-75
2022/01/30 06:33:56;;;;;;;8.98;3.40;;;;;;;6.36;52.44;98024.09;5045828;28;20057;-71
2022/01/30 06:36:23;;;;;;;13.02;3.08;;;;;;;6.42;52.39;97970.28;5043607;28;20072;-72
2022/01/30 06:38:51;;;;;;;8.60;2.90;;;;;;;6.54;52.16;97966.53;5044628;28;20048;-70
2022/01/30 06:41:18;;;;;;;6.80;2.33;;;;;;;6.51;52.69;97974.66;5044272;28;20095;-71
2022/01/30 06:43:46;;;;;;;12.38;3.30;;;;;;;6.32;53.63;97973.75;5043546;28;20045;-70
2022/01/30 06:46:15;;;;;;;11.13;3.15;;;;;;;6.40;53.51;97987.94;5044498;28;20398;-71
2022/01/30 06:48:42;;;;;;;9.48;3.45;;;;;;;6.57;53.31;97974.13;5044101;28;20051;-71
2022/01/30 06:51:11;;;;;;;6.28;2.92;;;;;;;6.56;53.71;97961.97;5044199;28;20063;-74
2022/01/30 06:53:38;;;;;;;14.35;4.20;;;;;;;6.55;53.85;97969.97;5024343;28;20085;-72
2022/01/30 06:56:05;;;;;;;13.27;5.53;;;;;;;6.47;54.22;97947.91;5024417;28;20050;-75
2022/01/30 06:58:32;;;;;;;11.95;4.63;;;;;;;6.42;54.80;97942.25;5028563;28;20196;-73
2022/01/30 07:00:59;;;;;;;6.95;2.75;;;;;;;6.43;55.20;97953.59;5028276;28;20401;-73
2022/01/30 07:03:26;;;;;;;8.63;2.70;;;;;;;6.36;55.38;97945.44;5028334;28;20413;-71
2022/01/30 07:05:53;;;;;;;13.52;4.05;;;;;;;6.15;56.56;97943.00;5027410;28;20049;-72
2022/01/30 07:08:23;;;;;;;12.25;3.75;;;;;;;5.90;58.13;97939.94;5033482;28;20063;-74
2022/01/30 07:10:50;;;;;;;9.85;4.30;;;;;;;5.62;59.41;97936.38;5043775;28;20136;-74
2022/01/30 07:13:20;;;;;;;13.82;4.15;;;;;;;5.49;60.44;97931.41;5048045;28;20622;-75
2022/01/30 07:15:48;;;;;;;12.25;3.13;;;;;;;5.41;60.78;97930.41;5027355;28;20416;-76
2022/01/30 07:18:18;;;;;;;13.77;5.00;;;;;;;5.32;61.61;97908.50;5045218;28;20056;-72
2022/01/30 07:20:53;;;;;;;6.78;3.55;;;;;;;5.30;61.71;97916.47;5029916;28;20523;-72
2022/01/30 07:23:24;;;;;;;10.63;4.95;;;;;;;5.20;62.55;97886.84;5032574;28;20132;-67
2022/01/30 07:25:51;;;;;;;6.00;4.18;;;;;;;5.17;62.54;97879.28;5045028;28;20553;-76
2022/01/30 07:28:18;;;;;;;8.27;2.35;;;;;;;5.19;62.39;97861.66;5045224;28;20076;-76
2022/01/30 07:30:45;;;;;;;8.07;4.07;;;;;;;5.14;62.82;97840.28;5043582;28;20136;-69
2022/01/30 07:33:12;;;;;;;3.97;1.58;;;;;;;5.14;62.92;97853.38;5044019;28;20427;-74
2022/01/30 07:35:42;;;;;;;9.98;4.35;;;;;;;5.11;63.34;97885.03;5043169;28;20036;-72
2022/01/30 07:38:10;;;;;;;15.32;6.03;;;;;;;5.16;63.25;97875.00;5042557;28;20048;-75
2022/01/30 07:40:45;;;;;;;9.15;3.42;;;;;;;5.23;63.09;97894.44;5045616;28;20037;-75
2022/01/30 07:43:13;;;;;;;16.25;9.30;;;;;;;5.12;63.55;97860.53;5048999;28;20083;-78
2022/01/30 07:45:42;;;;;;;1.95;1.55;;;;;;;5.14;63.40;97854.19;5047006;28;20053;-75
2022/01/30 07:48:09;;;;;;;9.95;5.25;;;;;;;5.07;63.86;97863.53;5031192;28;20049;-73
2022/01/30 07:50:38;;;;;;;5.38;2.95;;;;;;;5.12;63.60;97869.19;5053259;28;20091;-69
2022/01/30 07:53:16;;;;;;;5.85;2.78;;;;;;;5.12;63.70;97886.69;5039794;28;20077;-74
2022/01/30 07:55:45;;;;;;;8.63;4.78;;;;;;;5.00;64.42;97867.66;5048218;28;20045;-74
2022/01/30 07:58:12;;;;;;;12.05;3.10;;;;;;;5.07;64.30;97904.59;5046716;28;20053;-70
2022/01/30 08:00:40;;;;;;;9.50;4.82;;;;;;;5.08;64.42;97901.84;5044178;28;20049;-70
2022/01/30 08:03:07;;;;;;;10.23;4.90;;;;;;;5.13;64.44;97902.28;5046098;28;20658;-73
2022/01/30 08:05:34;;;;;;;9.48;4.60;;;;;;;5.05;64.78;97894.25;5043644;28;20085;-71
2022/01/30 08:08:01;;;;;;;15.85;4.72;;;;;;;4.99;65.12;97907.88;5044191;28;20080;-76
2022/01/30 08:10:28;;;;;;;9.35;4.25;;;;;;;5.08;64.94;97932.41;5046071;28;20388;-75
2022/01/30 08:12:57;;;;;;;9.80;3.90;;;;;;;5.06;65.24;97923.84;5046759;28;20057;-83
2022/01/30 08:15:24;;;;;;;13.55;5.95;;;;;;;4.94;65.02;97925.75;5045979;28;20153;-76
2022/01/30 08:17:52;;;;;;;11.20;4.25;;;;;;;4.70;65.64;97963.53;5027579;28;20124;-73
2022/01/30 08:20:21;;;;;;;10.68;4.40;;;;;;;4.34;66.61;97950.00;4993070;28;20133;-74
2022/01/30 08:22:50;;;;;;;12.00;5.72;;;;;;;3.94;67.42;97942.84;5044998;28;20056;-78
2022/01/30 08:25:18;;;;;;;14.32;4.85;;;;;;;3.71;67.82;97946.50;5044736;28;20041;-74
2022/01/30 08:27:45;;;;;;;18.92;12.25;;;;;;;3.52;68.19;97981.09;5027079;28;20124;-75
2022/01/30 08:30:14;;;;;;;11.27;4.97;;;;;;;3.49;67.97;97948.22;5044191;28;20128;-74
2022/01/30 08:32:42;;;;;;;1.17;0.55;;;;;;;3.52;68.06;97971.47;5045954;28;20055;-74
2022/01/30 08:35:10;;;;;;;1.00;0.52;;;;;;;3.63;68.06;97963.59;5044197;28;20049;-70
2022/01/30 08:37:37;;;;;;;0.10;0.10;;;;;;;3.75;68.82;97964.41;5044345;28;20051;-71
2022/01/30 08:40:06;;;;;;;0.10;0.10;;;;;;;3.92;68.39;97970.03;5043018;28;20040;-71
2022/01/30 08:42:33;;;;;;;0.52;0.52;;;;;;;4.05;68.39;97951.56;4986099;28;20071;-71
2022/01/30 08:45:00;;;;;;;0.30;0.30;;;;;;;4.02;68.80;97982.22;5041968;28;20493;-71
2022/01/30 08:47:29;;;;;;;0.25;0.25;;;;;;;4.02;68.72;97939.59;5041684;28;20653;-68
2022/01/30 08:49:56;;;;;;;1.88;1.77;;;;;;;4.04;68.93;97991.72;5040050;28;20394;-74
2022/01/30 08:52:23;;;;;;;0.10;0.10;;;;;;;4.14;68.82;97972.56;5040972;28;20063;-73
2022/01/30 08:54:50;;;;;;;0.10;0.10;;;;;;;4.22;68.79;97982.38;5040504;28;20128;-73
2022/01/30 08:57:18;;;;;;;0.10;0.10;;;;;;;4.31;68.74;97997.28;5041572;28;20037;-73
2022/01/30 08:59:45;;;;;;;0.00;0.00;;;;;;;4.45;68.63;97969.16;5043682;28;20477;-71
2022/01/30 09:02:12;;;;;;;1.35;1.35;;;;;;;4.56;68.33;97961.25;5043520;28;20068;-72
2022/01/30 09:04:41;;;;;;;0.10;0.10;;;;;;;4.71;68.10;97977.41;5039163;28;20049;-74
2022/01/30 09:07:08;;;;;;;0.25;0.20;;;;;;;4.87;67.88;97969.91;5041033;28;20045;-74
2022/01/30 09:09:36;;;;;;;0.10;0.10;;;;;;;5.05;67.50;97980.59;5040145;28;20145;-71
2022/01/30 09:12:09;;;;;;;0.10;0.10;;;;;;;5.15;67.26;97984.09;5042289;28;20082;-74
2022/01/30 09:14:39;;;;;;;0.50;0.50;;;;;;;5.38;67.08;97996.13;5041636;28;20658;-70
2022/01/30 09:17:12;;;;;;;0.10;0.10;;;;;;;5.59;66.33;97982.94;5042374;28;20056;-70
2022/01/30 09:19:41;;;;;;;0.10;0.10;;;;;;;5.64;65.93;97965.84;5018683;28;20528;-72
2022/01/30 09:22:09;;;;;;;0.85;0.82;;;;;;;5.61;66.53;97989.69;5005315;28;20060;-72
2022/01/30 09:24:36;;;;;;;0.00;0.00;;;;;;;5.73;66.07;97970.28;5026031;28;20287;-72
2022/01/30 09:27:04;;;;;;;0.00;0.00;;;;;;;5.80;65.60;97986.28;4974793;28;20077;-70
2022/01/30 09:29:33;;;;;;;1.33;0.30;;;;;;;5.82;65.33;97971.25;5027225;28;20056;-73
2022/01/30 09:32:02;;;;;;;4.68;1.67;;;;;;;5.84;64.91;97944.91;5024405;28;20430;-74
2022/01/30 09:34:29;;;;;;;0.25;0.25;;;;;;;5.91;64.50;97973.03;5026530;28;20244;-70
2022/01/30 09:36:58;;;;;;;1.15;0.73;;;;;;;5.98;64.20;97985.59;5019842;28;20045;-73
2022/01/30 09:39:25;;;;;;;0.10;0.10;;;;;;;5.98;64.31;97983.00;5021459;28;20128;-69
2022/01/30 09:41:54;;;;;;;1.40;0.90;;;;;;;5.94;64.74;97978.00;5037040;28;20120;-75
2022/01/30 09:44:22;;;;;;;0.10;0.10;;;;;;;5.95;64.58;97989.31;5022096;28;20159;-72
2022/01/30 09:46:50;;;;;;;0.10;0.10;;;;;;;5.92;64.22;97972.09;5025734;28;20618;-73
2022/01/30 09:49:22;;;;;;;0.10;0.10;;;;;;;5.91;64.28;97982.69;5036286;28;20046;-75
2022/01/30 09:51:49;;;;;;;0.10;0.10;;;;;;;5.99;63.78;97945.34;5052884;28;20052;-68
2022/01/30 09:54:18;;;;;;;7.10;3.42;;;;;;;5.92;64.31;97952.91;5047454;28;20076;-73
2022/01/30 09:56:45;;;;;;;0.57;0.57;;;;;;;5.96;63.83;98001.50;5050211;28;20124;-72
2022/01/30 09:59:12;;;;;;;0.10;0.10;;;;;;;5.97;64.00;97976.94;5047719;28;20164;-74
2022/01/30 10:01:40;;;;;;;0.10;0.10;;;;;;;5.93;63.67;97976.34;5040673;28;20063;-71
2022/01/30 10:04:09;;;;;;;5.95;2.35;;;;;;;5.85;64.16;97960.50;5039437;28;20083;-70
2022/01/30 10:07:00;;;;;;;1.38;0.75;;;;;;;5.86;64.16;97943.81;5039302;28;20140;-72
2022/01/30 10:09:32;;;;;;;0.85;0.85;;;;;;;5.86;63.91;97929.88;5043035;28;20079;-74
2022/01/30 10:12:15;;;;;;;1.33;1.27;;;;;;;5.84;64.35;97958.00;5037233;28;20045;-70
2022/01/30 10:15:00;;;;;;;8.32;2.60;;;;;;;5.85;65.02;97942.16;5041944;28;20133;-70
2022/01/30 10:17:33;;;;;;;1.00;1.00;;;;;;;5.71;66.27;97942.56;5038371;28;20132;-73
2022/01/30 10:20:06;;;;;;;0.10;0.10;;;;;;;5.70;65.72;97906.88;5038882;28;20051;-72
2022/01/30 10:22:36;;;;;;;0.38;0.38;;;;;;;5.69;65.74;97968.06;5042494;28;20049;-71
2022/01/30 10:25:05;;;;;;;0.20;0.20;;;;;;;5.73;65.48;97922.31;5038391;28;20045;-73
2022/01/30 10:27:33;;;;;;;0.10;0.10;;;;;;;5.72;65.34;97958.13;5045101;28;20152;-74
2022/01/30 10:30:02;;;;;;;2.58;2.38;;;;;;;5.70;66.02;97965.28;5037324;28;20056;-70
2022/01/30 10:32:30;;;;;;;1.75;1.65;;;;;;;5.74;65.75;97971.09;5044977;28;20087;-70
2022/01/30 10:35:02;;;;;;;0.10;0.10;;;;;;;5.78;65.52;97977.72;5044689;28;20053;-70
2022/01/30 10:37:30;;;;;;;0.00;0.00;;;;;;;5.75;66.56;97978.81;5053118;28;20136;-78
2022/01/30 10:40:16;;;;;;;0.10;0.10;;;;;;;5.78;66.02;97971.66;5057878;28;20049;-71
2022/01/30 10:42:48;;;;;;;0.38;0.38;;;;;;;5.79;65.74;98029.16;5056099;28;20041;-71
2022/01/30 10:45:25;;;;;;;0.32;0.32;;;;;;;5.65;67.09;97998.09;5061811;28;20045;-77
2022/01/30 10:47:52;;;;;;;0.10;0.10;;;;;;;5.75;66.50;97962.28;5051569;28;20072;-72
2022/01/30 10:50:25;;;;;;;0.10;0.10;;;;;;;5.79;66.04;98004.75;5046470;28;20128;-74
2022/01/30 10:53:04;;;;;;;0.00;0.00;;;;;;;5.82;66.05;98007.94;5044204;28;20354;-72
2022/01/30 10:55:47;;;;;;;0.10;0.10;;;;;;;5.87;65.80;97990.00;5039672;28;20260;-74
2022/01/30 10:58:16;;;;;;;0.05;0.05;;;;;;;5.85;65.73;97993.72;5044430;28;20041;-73
2022/01/30 11:00:52;;;;;;;0.00;0.00;;;;;;;5.81;66.14;97977.44;5030246;28;20307;-75
2022/01/30 11:03:44;;;;;;;;;;;;;;;6.04;65.65;97969.34;5041441;28;20044;-72
2022/01/30 11:06:15;;;;;;;0.10;0.10;;;;;;;5.87;65.92;97955.94;4977644;28;19956;-73
2022/01/30 11:08:46;;;;;;;0.00;0.00;;;;;;;5.74;67.81;97939.66;4979580;28;20125;-74
2022/01/30 11:11:30;;;;;;;0.10;0.10;;;;;;;5.83;66.80;97959.78;4979266;28;20054;-80
2022/01/30 11:14:20;;;;;;;0.20;0.20;;;;;;;5.85;66.50;97950.03;4980524;28;20122;-79
2022/01/30 11:19:41;;;;;;;2.47;0.20;;;;;;;5.96;66.39;97940.38;4906303;29;20052;-75
2022/01/30 11:22:09;;;;;;;15.63;5.63;;;;;;;5.65;68.44;97937.88;4898227;29;20228;-73
2022/01/30 11:24:44;;;;;;;11.30;2.28;;;;;;;5.66;68.38;97990.13;4903001;29;20072;-75
2022/01/30 11:27:14;;;;;;;0.22;0.20;;;;;;;5.58;68.28;98012.69;4893553;29;20052;-74
2022/01/30 11:29:43;;;;;;;0.65;0.43;;;;;;;5.50;68.47;98003.72;4898097;29;20466;-73
2022/01/30 11:32:10;;;;;;;11.60;5.53;;;;;;;5.43;68.29;98026.16;4895725;29;20057;-70
2022/01/30 11:34:39;;;;;;;4.63;1.33;;;;;;;5.40;68.34;98025.59;4894764;29;20044;-70
2022/01/30 11:37:10;;;;;;;1.27;1.23;;;;;;;5.36;67.80;98043.38;4890527;29;20473;-67
2022/01/30 11:39:45;;;;;;;0.47;0.28;;;;;;;5.31;68.20;98032.47;4893175;29;20060;-71
2022/01/30 11:42:18;;;;;;;0.17;0.17;;;;;;;5.35;68.11;98045.16;4918867;28;20058;-75
2022/01/30 11:44:46;;;;;;;0.00;0.00;;;;;;;5.40;67.76;98026.44;4963844;28;20125;-68
2022/01/30 11:47:23;;;;;;;0.65;0.65;;;;;;;5.40;68.30;98050.00;4966632;28;20076;-72
2022/01/30 11:50:08;;;;;;;0.10;0.10;;;;;;;5.52;67.92;98054.16;4960159;28;20051;-72
2022/01/30 11:52:56;;;;;;;6.32;2.78;;;;;;;5.63;67.88;98034.06;4963241;28;20086;-73
2022/01/30 11:55:43;;;;;;;0.60;0.45;;;;;;;5.70;68.20;98012.44;4962651;28;20191;-74
2022/01/30 11:58:46;;;;;;;1.23;0.40;;;;;;;5.76;67.92;98037.25;5049888;28;20519;-73
2022/01/30 12:01:34;;;;;;;2.05;1.58;;;;;;;5.75;68.39;98051.34;5032728;28;20518;-69
2022/01/30 12:04:04;;;;;;;6.40;2.55;;;;;;;5.87;67.35;98029.31;5019698;28;20447;-72
2022/01/30 12:06:37;;;;;;;0.10;0.10;;;;;;;5.84;67.71;98066.25;5027838;28;20500;-75
2022/01/30 12:09:20;;;;;;;9.23;4.65;;;;;;;5.80;67.88;98057.00;4978336;28;20050;-77
2022/01/30 12:12:08;;;;;;;0.05;0.05;;;;;;;5.83;67.47;98030.53;5027795;28;20049;-70
2022/01/30 12:14:55;;;;;;;9.00;3.88;;;;;;;5.52;69.63;98059.41;5028529;28;20050;-66
2022/01/30 12:17:59;;;;;;;0.13;0.13;;;;;;;5.63;68.49;98041.94;5025531;28;20050;-68
2022/01/30 12:20:27;;;;;;;0.00;0.00;;;;;;;5.53;69.25;98079.41;5025302;28;20041;-73
2022/01/30 12:22:55;;;;;;;2.53;1.20;;;;;;;5.52;69.28;98093.44;5040384;28;20048;-72
2022/01/30 12:25:53;;;;;;;0.10;0.10;;;;;;;5.58;69.17;98063.28;5034780;28;20041;-76
2022/01/30 12:28:20;;;;;;;0.00;0.00;;;;;;;5.47;69.27;98069.44;5030994;28;20045;-72
2022/01/30 12:30:52;;;;;;;5.70;3.78;;;;;;;5.41;69.80;98058.69;5031121;28;20104;-66
2022/01/30 12:33:46;;;;;;;1.35;0.88;;;;;;;5.51;69.32;98107.50;5025587;28;20049;-72